sensor_id;sensor_type;location;lat;lon;timestamp;temperature;humidity
75113;DHT22;63692;47.338;8.520;2023-04-24T04:14:14;11.10;99.90
75113;DHT22;63692;47.338;8.520;2023-04-24T04:16:40;11.10;99.90
75113;DHT22;63692;47.338;8.520;2023-04-24T04:19:05;11.00;99.90
75113;DHT22;63692;47.338;8.520;2023-04-24T04:21:31;11.00;99.90
75113;DHT22;63692;47.338;8.520;2023-04-24T04:26:24;11.10;99.90
75113;DHT22;63692;47.338;8.520;2023-04-24T04:28:51;11.10;99.90
75113;DHT22;63692;47.338;8.520;2023-04-24T04:31:17;11.10;99.90
75113;DHT22;63692;47.338;8.520;2023-04-24T04:33:42;11.10;99.90
75113;DHT22;63692;47.338;8.520;2023-04-24T04:36:12;11.10;99.90
75113;DHT22;63692;47.338;8.520;2023-04-24T04:38:46;11.10;99.90
75113;DHT22;63692;47.338;8.520;2023-04-24T04:41:12;11.10;99.90
75113;DHT22;63692;47.338;8.520;2023-04-24T04:43:37;11.10;99.90
75113;DHT22;63692;47.338;8.520;2023-04-24T04:46:05;11.00;99.90
75113;DHT22;63692;47.338;8.520;2023-04-24T04:48:30;11.00;99.90
75113;DHT22;63692;47.338;8.520;2023-04-24T04:50:57;11.00;99.90
75113;DHT22;63692;47.338;8.520;2023-04-24T04:53:23;11.00;99.90
75113;DHT22;63692;47.338;8.520;2023-04-24T04:55:49;10.90;99.90
75113;DHT22;63692;47.338;8.520;2023-04-24T04:58:15;10.90;99.90
75113;DHT22;63692;47.338;8.520;2023-04-24T05:00:41;10.90;99.90
75113;DHT22;63692;47.338;8.520;2023-04-24T05:03:06;10.70;99.90
75113;DHT22;63692;47.338;8.520;2023-04-24T05:07:59;10.80;99.90
75113;DHT22;63692;47.338;8.520;2023-04-24T05:10:25;10.80;99.90
75113;DHT22;63692;47.338;8.520;2023-04-24T05:12:50;10.70;99.90
75113;DHT22;63692;47.338;8.520;2023-04-24T05:15:16;10.70;99.90
75113;DHT22;63692;47.338;8.520;2023-04-24T05:17:42;10.70;99.90
75113;DHT22;63692;47.338;8.520;2023-04-24T05:20:07;10.70;99.90
75113;DHT22;63692;47.338;8.520;2023-04-24T05:22:35;10.60;99.90
75113;DHT22;63692;47.338;8.520;2023-04-24T05:25:01;10.50;99.90
75113;DHT22;63692;47.338;8.520;2023-04-24T05:27:28;10.50;99.90
75113;DHT22;63692;47.338;8.520;2023-04-24T05:32:20;10.40;99.90
75113;DHT22;63692;47.338;8.520;2023-04-24T05:34:46;10.50;99.90
75113;DHT22;63692;47.338;8.520;2023-04-24T05:37:15;10.50;99.90
75113;DHT22;63692;47.338;8.520;2023-04-24T05:39:40;10.50;99.90
75113;DHT22;63692;47.338;8.520;2023-04-24T05:42:07;10.50;99.90
75113;DHT22;63692;47.338;8.520;2023-04-24T05:44:32;10.50;99.90
75113;DHT22;63692;47.338;8.520;2023-04-24T05:46:58;10.50;99.90
75113;DHT22;63692;47.338;8.520;2023-04-24T05:49:23;10.50;99.90
75113;DHT22;63692;47.338;8.520;2023-04-24T05:51:49;10.40;99.90
75113;DHT22;63692;47.338;8.520;2023-04-24T05:54:14;10.40;99.90
75113;DHT22;63692;47.338;8.520;2023-04-24T05:56:40;10.50;99.90
75113;DHT22;63692;47.338;8.520;2023-04-24T05:59:06;10.50;99.90
75113;DHT22;63692;47.338;8.520;2023-04-24T06:01:31;10.40;99.90
75113;DHT22;63692;47.338;8.520;2023-04-24T06:03:57;10.40;99.90
75113;DHT22;63692;47.338;8.520;2023-04-24T06:06:24;10.50;99.90
75113;DHT22;63692;47.338;8.520;2023-04-24T06:08:49;10.50;99.90
75113;DHT22;63692;47.338;8.520;2023-04-24T06:11:15;10.40;99.90
75113;DHT22;63692;47.338;8.520;2023-04-24T06:13:41;10.50;99.90
75113;DHT22;63692;47.338;8.520;2023-04-24T06:16:06;10.50;99.90
75113;DHT22;63692;47.338;8.520;2023-04-24T06:18:32;10.60;99.90
75113;DHT22;63692;47.338;8.520;2023-04-24T06:20:57;10.70;99.90
75113;DHT22;63692;47.338;8.520;2023-04-24T06:23:23;10.60;99.90
75113;DHT22;63692;47.338;8.520;2023-04-24T06:25:49;10.70;99.90
75113;DHT22;63692;47.338;8.520;2023-04-24T06:28:15;10.70;99.90
75113;DHT22;63692;47.338;8.520;2023-04-24T06:30:41;10.70;99.90
75113;DHT22;63692;47.338;8.520;2023-04-24T06:33:06;10.80;99.90
75113;DHT22;63692;47.338;8.520;2023-04-24T06:35:32;10.90;99.90
75113;DHT22;63692;47.338;8.520;2023-04-24T06:37:58;11.00;99.90
75113;DHT22;63692;47.338;8.520;2023-04-24T06:40:23;11.00;99.90
75113;DHT22;63692;47.338;8.520;2023-04-24T06:42:49;11.10;99.90
75113;DHT22;63692;47.338;8.520;2023-04-24T06:45:15;11.20;99.90
75113;DHT22;63692;47.338;8.520;2023-04-24T06:47:41;11.30;99.90
75113;DHT22;63692;47.338;8.520;2023-04-24T06:50:06;11.30;99.90
75113;DHT22;63692;47.338;8.520;2023-04-24T06:57:35;11.40;99.90
75113;DHT22;63692;47.338;8.520;2023-04-24T07:00:00;11.50;99.90
75113;DHT22;63692;47.338;8.520;2023-04-24T07:10:07;11.70;99.90
75113;DHT22;63692;47.338;8.520;2023-04-24T07:12:33;11.60;99.90
75113;DHT22;63692;47.338;8.520;2023-04-24T07:27:32;11.90;99.90
75113;DHT22;63692;47.338;8.520;2023-04-24T08:51:36;11.80;99.90
75113;DHT22;63692;47.338;8.520;2023-04-24T09:33:58;12.30;99.90
75113;DHT22;63692;47.338;8.520;2023-04-24T11:39:21;13.10;99.90
75113;DHT22;63692;47.338;8.520;2023-04-24T11:41:47;13.10;99.80
75113;DHT22;63692;47.338;8.520;2023-04-24T11:44:24;13.20;99.00
75113;DHT22;63692;47.338;8.520;2023-04-24T11:46:50;13.10;98.40
75113;DHT22;63692;47.338;8.520;2023-04-24T11:49:15;13.10;98.00
75113;DHT22;63692;47.338;8.520;2023-04-24T12:12:18;13.10;98.50
75113;DHT22;63692;47.338;8.520;2023-04-24T12:14:55;13.10;98.70
75113;DHT22;63692;47.338;8.520;2023-04-24T12:17:29;13.10;98.70
75113;DHT22;63692;47.338;8.520;2023-04-24T12:20:03;13.10;98.50
75113;DHT22;63692;47.338;8.520;2023-04-24T12:22:50;13.20;98.20
75113;DHT22;63692;47.338;8.520;2023-04-24T12:25:17;13.30;98.20
75113;DHT22;63692;47.338;8.520;2023-04-24T12:30:59;13.40;98.30
75113;DHT22;63692;47.338;8.520;2023-04-24T12:33:28;13.30;98.80
75113;DHT22;63692;47.338;8.520;2023-04-24T12:36:05;13.40;98.00
75113;DHT22;63692;47.338;8.520;2023-04-24T12:48:46;13.50;97.90
75113;DHT22;63692;47.338;8.520;2023-04-24T12:51:12;13.50;97.40
75113;DHT22;63692;47.338;8.520;2023-04-24T12:53:37;13.60;97.20
75113;DHT22;63692;47.338;8.520;2023-04-24T12:56:03;13.60;97.40
75113;DHT22;63692;47.338;8.520;2023-04-24T12:58:29;13.60;96.90
75113;DHT22;63692;47.338;8.520;2023-04-24T13:00:55;13.70;97.30
75113;DHT22;63692;47.338;8.520;2023-04-24T13:03:20;13.80;96.20
75113;DHT22;63692;47.338;8.520;2023-04-24T13:10:50;14.10;95.70
75113;DHT22;63692;47.338;8.520;2023-04-24T13:13:17;14.20;95.90
75113;DHT22;63692;47.338;8.520;2023-04-24T13:15:42;14.30;95.30
75113;DHT22;63692;47.338;8.520;2023-04-24T13:18:08;14.20;95.40
75113;DHT22;63692;47.338;8.520;2023-04-24T13:20:33;14.20;95.40
75113;DHT22;63692;47.338;8.520;2023-04-24T13:23:00;14.20;96.00
75113;DHT22;63692;47.338;8.520;2023-04-24T13:27:55;14.20;93.90
75113;DHT22;63692;47.338;8.520;2023-04-24T17:28:35;13.50;94.70
75113;DHT22;63692;47.338;8.520;2023-04-24T17:31:01;13.50;94.50
75113;DHT22;63692;47.338;8.520;2023-04-24T17:33:28;13.50;95.00
75113;DHT22;63692;47.338;8.520;2023-04-24T17:35:55;13.50;95.20
75113;DHT22;63692;47.338;8.520;2023-04-24T17:38:22;13.50;95.20
75113;DHT22;63692;47.338;8.520;2023-04-24T17:40:48;13.40;95.00
75113;DHT22;63692;47.338;8.520;2023-04-24T17:43:20;13.30;95.20
75113;DHT22;63692;47.338;8.520;2023-04-24T17:45:48;13.20;95.60
75113;DHT22;63692;47.338;8.520;2023-04-24T17:48:14;13.20;95.80
75113;DHT22;63692;47.338;8.520;2023-04-24T17:50:40;13.20;96.00
75113;DHT22;63692;47.338;8.520;2023-04-24T17:53:06;13.10;96.30
75113;DHT22;63692;47.338;8.520;2023-04-24T18:02:57;13.00;98.50
75113;DHT22;63692;47.338;8.520;2023-04-24T18:05:35;13.00;98.10
75113;DHT22;63692;47.338;8.520;2023-04-24T18:08:02;12.80;98.30
75113;DHT22;63692;47.338;8.520;2023-04-24T18:10:30;12.60;98.90
75113;DHT22;63692;47.338;8.520;2023-04-24T18:12:56;12.60;99.90
75113;DHT22;63692;47.338;8.520;2023-04-24T18:15:22;12.50;99.90
75113;DHT22;63692;47.338;8.520;2023-04-24T18:17:47;12.30;99.90
75113;DHT22;63692;47.338;8.520;2023-04-24T18:20:14;12.30;99.90
75113;DHT22;63692;47.338;8.520;2023-04-24T18:22:40;12.20;99.90
75113;DHT22;63692;47.338;8.520;2023-04-24T18:25:07;12.00;99.90
75113;DHT22;63692;47.338;8.520;2023-04-24T18:27:34;11.90;99.90
75113;DHT22;63692;47.338;8.520;2023-04-24T18:29:59;11.90;99.90
75113;DHT22;63692;47.338;8.520;2023-04-24T18:32:25;11.70;99.90
75113;DHT22;63692;47.338;8.520;2023-04-24T18:52:27;11.10;99.90
75113;DHT22;63692;47.338;8.520;2023-04-24T19:22:49;10.50;99.90
75113;DHT22;63692;47.338;8.520;2023-04-24T20:02:34;10.30;99.90
75113;DHT22;63692;47.338;8.520;2023-04-24T20:05:00;10.30;99.90
75113;DHT22;63692;47.338;8.520;2023-04-24T20:07:26;10.30;99.90
75113;DHT22;63692;47.338;8.520;2023-04-24T20:09:52;10.40;99.90
75113;DHT22;63692;47.338;8.520;2023-04-24T20:12:17;10.40;99.90
75113;DHT22;63692;47.338;8.520;2023-04-24T20:14:43;10.40;99.90
75113;DHT22;63692;47.338;8.520;2023-04-24T20:17:09;10.40;99.90
75113;DHT22;63692;47.338;8.520;2023-04-24T20:19:35;10.40;99.90
75113;DHT22;63692;47.338;8.520;2023-04-24T20:22:00;10.30;99.90
75113;DHT22;63692;47.338;8.520;2023-04-24T20:24:26;10.20;99.90
75113;DHT22;63692;47.338;8.520;2023-04-24T20:26:52;10.20;99.90
75113;DHT22;63692;47.338;8.520;2023-04-24T20:29:18;10.30;99.90
